Glenwood, Colorado
Current Conditions -  °F | °C
As of 1:18 AM on Sunday 26 Oct 2014 (Local Time) from K5SM Reporting Station
Scattered Clouds Scattered Clouds  
Wind Chill: 42°   Ceiling: Unl
Heat Index: 45°   Visibility: 10mi
Dew Point: 32°   Wind: 5mph
Humidity: 61%   Direction: 200°SSW
Pressure: 30.32"   Gusts: NA
Location:  39.4624°N, 107.257°W
Report Text: K5SM 260718Z AUTO 20004KT 10SM SCT050 07/00 A3032 RMK AO2
Loading
Personal Weather Stations






























Interactive Weather Map
Tropical Storm Tracking
New forecast layout! Learn more

10-Day Weather Forecast

Advertisements
Track Severe Weather on mobile